Time;durP1;ratioP1;P1;durP2;ratioP2;P2;SDS_P1;SDS_P2;PMS_P1;PMS_P2;Temp;Humidity;BMP_temperature;BMP_pressure;BME280_temperature;BME280_humidity;BME280_pressure;Samples;Min_cycle;Max_cycle;Signal;HPM_P1;HPM_P2
2023/05/03 00:00:21;;;;;;;7.60;5.20;;;8.20;99.90;;;;;;5051919;28;20433;-79
2023/05/03 00:02:46;;;;;;;6.50;5.23;;;8.10;99.90;;;;;;5034058;28;20716;-78
2023/05/03 00:05:13;;;;;;;8.00;5.70;;;8.10;99.90;;;;;;5050159;28;20604;-77
2023/05/03 00:07:42;;;;;;;7.67;5.60;;;8.10;99.90;;;;;;5017405;28;20196;-78
2023/05/03 00:10:09;;;;;;;10.53;5.00;;;8.00;99.90;;;;;;5053989;28;20781;-79
2023/05/03 00:12:37;;;;;;;6.93;5.10;;;8.10;99.90;;;;;;5053938;28;20423;-79
2023/05/03 00:15:03;;;;;;;9.17;6.33;;;8.10;99.90;;;;;;5053717;28;20446;-79
2023/05/03 00:17:28;;;;;;;7.83;5.20;;;8.10;99.90;;;;;;5053758;28;20437;-79
2023/05/03 00:19:55;;;;;;;6.70;4.73;;;8.20;99.90;;;;;;5055705;28;20414;-79
2023/05/03 00:22:21;;;;;;;10.80;5.27;;;8.10;99.90;;;;;;5033972;28;20535;-78
2023/05/03 00:24:48;;;;;;;6.77;5.43;;;8.10;99.90;;;;;;5051765;28;20466;-77
2023/05/03 00:27:14;;;;;;;6.87;5.33;;;8.10;99.90;;;;;;5050383;28;20447;-77
2023/05/03 00:29:39;;;;;;;7.37;5.40;;;8.00;99.90;;;;;;5050111;28;20416;-78
2023/05/03 00:32:05;;;;;;;5.93;4.60;;;8.00;99.90;;;;;;5049899;28;20418;-78
2023/05/03 00:34:30;;;;;;;8.03;4.80;;;8.10;99.90;;;;;;5050952;28;20243;-78
2023/05/03 00:36:56;;;;;;;6.27;4.13;;;8.20;99.90;;;;;;5033398;28;20188;-78
2023/05/03 00:39:22;;;;;;;8.77;4.83;;;8.30;99.90;;;;;;5016452;28;20201;-78
2023/05/03 00:41:47;;;;;;;6.10;4.73;;;8.40;99.90;;;;;;5051225;28;20271;-76
2023/05/03 00:44:13;;;;;;;8.17;5.53;;;8.40;99.90;;;;;;5050078;28;20211;-78
2023/05/03 00:46:39;;;;;;;6.10;4.37;;;8.60;99.90;;;;;;5051250;28;20190;-77
2023/05/03 00:49:05;;;;;;;6.00;4.93;;;8.50;99.90;;;;;;5050386;28;20899;-78
2023/05/03 00:51:32;;;;;;;5.90;4.63;;;8.50;99.90;;;;;;5050805;28;20411;-77
2023/05/03 00:53:57;;;;;;;10.40;5.00;;;8.40;99.90;;;;;;5033217;28;20828;-77
2023/05/03 00:56:24;;;;;;;6.80;5.10;;;8.30;99.90;;;;;;5032467;28;20418;-77
2023/05/03 00:58:54;;;;;;;4.90;3.97;;;8.30;99.90;;;;;;5049427;28;20303;-78
2023/05/03 01:01:20;;;;;;;5.60;4.40;;;8.20;99.90;;;;;;5049155;28;21043;-77
2023/05/03 01:03:46;;;;;;;6.10;4.33;;;8.20;99.90;;;;;;5049418;28;20558;-78
2023/05/03 01:06:37;;;;;;;6.77;5.07;;;8.20;99.90;;;;;;5032826;28;20424;-77
2023/05/03 01:09:36;;;;;;;6.33;4.50;;;8.20;99.90;;;;;;5050076;28;20431;-77
2023/05/03 01:12:10;;;;;;;4.73;4.17;;;8.10;99.90;;;;;;5050371;28;20418;-78
2023/05/03 01:15:01;;;;;;;13.23;4.77;;;8.10;99.90;;;;;;5050654;28;20405;-77
2023/05/03 01:17:47;;;;;;;7.73;4.60;;;8.10;99.90;;;;;;5050138;28;20475;-77
2023/05/03 01:20:16;;;;;;;7.10;4.47;;;8.00;99.90;;;;;;5048890;28;20421;-78
2023/05/03 01:22:49;;;;;;;6.10;4.00;;;8.00;99.90;;;;;;5050236;28;20475;-78
2023/05/03 01:25:15;;;;;;;4.83;3.73;;;7.90;99.90;;;;;;5049147;28;20517;-78
2023/05/03 01:27:41;;;;;;;7.20;4.97;;;7.90;99.90;;;;;;5050026;28;21046;-78
2023/05/03 01:30:09;;;;;;;7.50;5.10;;;7.90;99.90;;;;;;5050052;28;20467;-78
2023/05/03 01:32:55;;;;;;;7.10;3.70;;;7.80;99.90;;;;;;5048685;28;20481;-79
2023/05/03 01:35:40;;;;;;;5.00;4.03;;;7.60;99.90;;;;;;5051368;28;20421;-79
2023/05/03 01:38:07;;;;;;;7.23;3.97;;;7.70;99.90;;;;;;5050432;28;20451;-79
2023/05/03 01:40:39;;;;;;;6.37;4.40;;;7.80;99.90;;;;;;5051247;28;20460;-79
2023/05/03 01:43:06;;;;;;;6.50;4.60;;;7.60;99.90;;;;;;5051226;28;20458;-78
2023/05/03 01:45:32;;;;;;;8.23;5.43;;;7.60;99.90;;;;;;5049411;28;20426;-77
2023/05/03 01:47:58;;;;;;;13.83;4.70;;;7.70;99.90;;;;;;5032015;28;20508;-77
2023/05/03 01:50:23;;;;;;;5.80;4.80;;;7.60;99.90;;;;;;5049629;28;20851;-78
2023/05/03 01:52:51;;;;;;;9.93;4.67;;;7.60;99.90;;;;;;5050399;28;20429;-78
2023/05/03 01:55:17;;;;;;;9.20;4.80;;;7.60;99.90;;;;;;5049183;28;20221;-78
2023/05/03 01:57:43;;;;;;;6.70;4.37;;;7.40;99.90;;;;;;5049787;28;20430;-78
2023/05/03 02:00:09;;;;;;;8.47;5.60;;;7.60;99.90;;;;;;5049509;28;20424;-78
2023/05/03 02:02:34;;;;;;;7.90;4.87;;;7.40;99.90;;;;;;5050511;28;20189;-77
2023/05/03 02:05:00;;;;;;;5.57;4.70;;;7.40;99.90;;;;;;5049789;28;20947;-76
2023/05/03 02:07:26;;;;;;;7.60;5.27;;;7.30;99.90;;;;;;5050903;28;20206;-79
2023/05/03 02:09:51;;;;;;;9.90;4.87;;;7.30;99.90;;;;;;5031303;28;20242;-77
2023/05/03 02:12:17;;;;;;;6.03;4.83;;;7.10;99.90;;;;;;5049624;28;20187;-82
2023/05/03 02:14:42;;;;;;;6.60;4.70;;;7.20;99.90;;;;;;5015259;28;20650;-80
2023/05/03 02:17:09;;;;;;;7.70;4.67;;;7.20;99.90;;;;;;5032513;28;20531;-81
2023/05/03 02:19:35;;;;;;;7.40;4.57;;;7.10;99.90;;;;;;5015819;28;20573;-81
2023/05/03 02:22:01;;;;;;;6.03;4.80;;;7.10;99.90;;;;;;5048241;28;20439;-81
2023/05/03 02:24:26;;;;;;;7.10;5.07;;;7.10;99.90;;;;;;5031222;28;20226;-80
2023/05/03 02:26:52;;;;;;;11.03;5.90;;;7.20;99.90;;;;;;5032518;28;21030;-77
2023/05/03 02:29:17;;;;;;;6.53;5.00;;;7.10;99.90;;;;;;5032583;28;20226;-77
2023/05/03 02:31:43;;;;;;;10.70;5.10;;;7.20;99.90;;;;;;5048322;28;20190;-77
2023/05/03 02:34:08;;;;;;;7.20;5.50;;;7.20;99.90;;;;;;5032985;28;20258;-77
2023/05/03 02:36:34;;;;;;;7.00;5.67;;;7.30;99.90;;;;;;5034847;28;20195;-78
2023/05/03 02:39:00;;;;;;;7.70;5.10;;;7.30;99.90;;;;;;5033775;28;20207;-76
2023/05/03 02:41:26;;;;;;;6.33;5.20;;;7.40;99.90;;;;;;5051473;28;20562;-77
2023/05/03 02:43:51;;;;;;;8.97;5.80;;;7.30;99.90;;;;;;5051639;28;20216;-78
2023/05/03 02:46:17;;;;;;;5.90;4.50;;;7.40;99.90;;;;;;5033989;28;20449;-77
2023/05/03 02:48:42;;;;;;;8.23;5.33;;;7.40;99.90;;;;;;5051521;28;20198;-79
2023/05/03 02:51:08;;;;;;;6.30;5.10;;;7.40;99.90;;;;;;5050781;28;20195;-77
2023/05/03 02:53:33;;;;;;;5.90;4.27;;;7.40;99.90;;;;;;5051915;28;20240;-77
2023/05/03 02:55:59;;;;;;;6.40;5.03;;;7.40;99.90;;;;;;5050202;28;20657;-78
2023/05/03 02:58:25;;;;;;;7.37;6.00;;;7.30;99.90;;;;;;5048786;28;20226;-81
2023/05/03 03:00:51;;;;;;;7.80;6.07;;;7.30;99.90;;;;;;5048683;28;20276;-77
2023/05/03 03:03:17;;;;;;;8.03;5.83;;;7.20;99.90;;;;;;5050618;28;20220;-77
2023/05/03 03:05:42;;;;;;;6.50;5.47;;;7.10;99.90;;;;;;5049509;28;20777;-77
2023/05/03 03:08:08;;;;;;;8.13;6.23;;;7.20;99.90;;;;;;5052483;28;20287;-76
2023/05/03 03:10:33;;;;;;;10.67;5.37;;;7.20;99.90;;;;;;5053148;28;20541;-77
2023/05/03 03:12:59;;;;;;;9.70;5.83;;;7.10;99.90;;;;;;5051954;28;20239;-78
2023/05/03 03:15:24;;;;;;;9.03;5.83;;;7.00;99.90;;;;;;5053781;28;20176;-79
2023/05/03 03:17:50;;;;;;;15.50;6.97;;;7.00;99.90;;;;;;5052002;28;20210;-78
2023/05/03 03:20:16;;;;;;;11.57;6.40;;;7.00;99.90;;;;;;5052711;28;20598;-80
2023/05/03 03:22:42;;;;;;;10.17;6.57;;;7.10;99.90;;;;;;5052352;28;20215;-78
2023/05/03 03:25:08;;;;;;;12.13;6.90;;;7.10;99.90;;;;;;5053468;28;20241;-78
2023/05/03 03:27:34;;;;;;;11.13;6.67;;;7.10;99.90;;;;;;5035106;28;20476;-77
2023/05/03 03:30:00;;;;;;;10.07;7.50;;;7.10;99.90;;;;;;5053356;28;21014;-79
2023/05/03 03:32:26;;;;;;;12.40;7.27;;;7.00;99.90;;;;;;5050969;28;20454;-76
2023/05/03 03:34:51;;;;;;;10.00;5.90;;;7.00;99.90;;;;;;5052723;28;20226;-78
2023/05/03 03:37:17;;;;;;;9.10;6.40;;;7.00;99.90;;;;;;5035378;28;20222;-77
2023/05/03 03:39:43;;;;;;;9.80;6.50;;;6.90;99.90;;;;;;5035420;28;21068;-78
2023/05/03 03:42:10;;;;;;;10.37;6.80;;;7.00;99.90;;;;;;5054149;28;20199;-78
2023/05/03 03:44:35;;;;;;;16.67;6.93;;;6.90;99.90;;;;;;5035458;28;20318;-78
2023/05/03 03:47:01;;;;;;;11.40;6.73;;;6.90;99.90;;;;;;5053324;28;20517;-78
2023/05/03 03:49:27;;;;;;;8.80;6.33;;;6.90;99.90;;;;;;5053846;28;20180;-78
2023/05/03 03:51:52;;;;;;;9.40;6.43;;;6.90;99.90;;;;;;5052045;28;20198;-77
2023/05/03 03:54:18;;;;;;;11.87;7.00;;;6.90;99.90;;;;;;5051946;28;20613;-77
2023/05/03 03:56:43;;;;;;;10.23;6.93;;;6.80;99.90;;;;;;5052068;28;20206;-78
2023/05/03 03:59:09;;;;;;;9.17;6.60;;;6.80;99.90;;;;;;5053506;28;20211;-77
2023/05/03 04:01:35;;;;;;;8.80;6.27;;;6.80;99.90;;;;;;5051982;28;20183;-77
2023/05/03 04:04:00;;;;;;;9.10;6.73;;;6.80;99.90;;;;;;5053201;28;20264;-77
2023/05/03 04:06:26;;;;;;;12.50;6.33;;;6.70;99.90;;;;;;5053339;28;20195;-78
2023/05/03 04:08:51;;;;;;;9.07;6.80;;;6.70;99.90;;;;;;5018311;28;20256;-78
2023/05/03 04:11:17;;;;;;;7.93;6.07;;;6.60;99.90;;;;;;5053192;28;20646;-77
2023/05/03 04:13:43;;;;;;;9.43;7.20;;;6.80;99.90;;;;;;5034741;28;20192;-77
2023/05/03 04:16:08;;;;;;;9.10;6.07;;;6.60;99.90;;;;;;5051342;28;20645;-77
2023/05/03 04:18:34;;;;;;;11.63;6.83;;;6.70;99.90;;;;;;5034440;28;20828;-77
2023/05/03 04:21:00;;;;;;;12.70;8.47;;;6.60;99.90;;;;;;5052693;28;20187;-77
2023/05/03 04:23:25;;;;;;;8.50;6.87;;;6.70;99.90;;;;;;5052835;28;20216;-78
2023/05/03 04:25:51;;;;;;;8.00;6.67;;;6.60;99.90;;;;;;5052086;28;20238;-78
2023/05/03 04:28:17;;;;;;;10.03;7.10;;;6.60;99.90;;;;;;5052195;28;20283;-77
2023/05/03 04:30:46;;;;;;;9.37;7.00;;;6.60;99.90;;;;;;5052078;28;20672;-78
2023/05/03 04:33:12;;;;;;;8.20;6.13;;;6.60;99.90;;;;;;5051849;28;20792;-77
2023/05/03 04:35:38;;;;;;;13.40;8.83;;;6.60;99.90;;;;;;5053266;28;20446;-77
2023/05/03 04:38:04;;;;;;;15.43;9.40;;;6.70;99.90;;;;;;5051818;28;20549;-78
2023/05/03 04:40:30;;;;;;;12.43;9.23;;;6.70;99.90;;;;;;5052967;28;20565;-77
2023/05/03 04:42:56;;;;;;;16.70;8.20;;;6.70;99.90;;;;;;5051556;28;20217;-77
2023/05/03 04:45:22;;;;;;;7.83;6.43;;;6.70;99.90;;;;;;5052824;28;20247;-77
2023/05/03 04:47:48;;;;;;;11.27;6.67;;;6.70;99.90;;;;;;5052354;28;20430;-78
2023/05/03 04:50:14;;;;;;;11.03;6.60;;;6.70;99.90;;;;;;5052901;28;20415;-77
2023/05/03 04:52:40;;;;;;;8.40;6.73;;;6.80;99.90;;;;;;5052600;28;20480;-77
2023/05/03 04:55:06;;;;;;;9.80;6.60;;;7.00;99.90;;;;;;5051249;28;20935;-77
2023/05/03 04:57:33;;;;;;;9.20;6.27;;;7.00;99.90;;;;;;5052103;28;20265;-78
2023/05/03 04:59:58;;;;;;;10.20;6.40;;;7.20;99.90;;;;;;5050777;28;20434;-78
2023/05/03 05:02:25;;;;;;;10.50;7.53;;;7.30;99.90;;;;;;5051977;28;20463;-78
2023/05/03 05:04:50;;;;;;;11.10;8.30;;;7.50;99.90;;;;;;5051844;28;21049;-77
2023/05/03 05:07:16;;;;;;;12.63;8.67;;;7.70;99.90;;;;;;5050702;28;20418;-78
2023/05/03 05:09:42;;;;;;;14.73;9.47;;;7.70;99.90;;;;;;5050260;28;20679;-78
2023/05/03 05:12:08;;;;;;;11.63;7.67;;;7.80;99.90;;;;;;5051246;28;20422;-78
2023/05/03 05:14:34;;;;;;;12.57;8.30;;;7.90;99.90;;;;;;5052046;28;20207;-78
2023/05/03 05:16:59;;;;;;;12.63;8.63;;;8.00;99.90;;;;;;5051549;28;20175;-78
2023/05/03 05:19:25;;;;;;;14.13;8.93;;;8.20;99.90;;;;;;5033228;28;20885;-78
2023/05/03 05:21:51;;;;;;;13.93;8.53;;;8.20;99.90;;;;;;5051286;28;20237;-77
2023/05/03 05:24:17;;;;;;;10.67;7.37;;;8.30;99.90;;;;;;5051326;28;20207;-78
2023/05/03 05:26:42;;;;;;;11.43;8.17;;;8.40;99.90;;;;;;5051302;28;20969;-78
2023/05/03 05:29:08;;;;;;;12.00;7.87;;;8.50;99.90;;;;;;5050115;28;20208;-78
2023/05/03 05:31:35;;;;;;;12.73;8.57;;;8.60;99.90;;;;;;5049558;28;20194;-78
2023/05/03 05:34:00;;;;;;;14.77;8.50;;;8.60;99.90;;;;;;5049932;28;20201;-77
2023/05/03 05:36:26;;;;;;;10.57;8.00;;;8.70;99.90;;;;;;5049871;28;20426;-78
2023/05/03 05:38:52;;;;;;;11.60;8.37;;;8.80;99.90;;;;;;5051161;28;20216;-78
2023/05/03 05:41:18;;;;;;;13.67;9.60;;;8.80;99.90;;;;;;5051332;28;20192;-78
2023/05/03 05:43:44;;;;;;;13.13;8.93;;;8.90;99.90;;;;;;5049539;28;20489;-78
2023/05/03 05:46:10;;;;;;;13.73;8.13;;;9.00;99.90;;;;;;5050837;28;20183;-77
2023/05/03 05:48:35;;;;;;;13.70;8.90;;;9.20;99.90;;;;;;5050974;28;20487;-78
2023/05/03 05:51:01;;;;;;;14.77;8.40;;;9.10;99.90;;;;;;5051726;28;20450;-77
2023/05/03 05:53:27;;;;;;;12.93;8.83;;;9.10;99.90;;;;;;5048683;28;20194;-77
2023/05/03 05:55:53;;;;;;;18.03;10.90;;;9.20;99.90;;;;;;5050518;28;20194;-78
2023/05/03 05:58:19;;;;;;;17.13;10.30;;;9.30;99.90;;;;;;5048742;28;20442;-76
2023/05/03 06:00:47;;;;;;;12.53;9.63;;;9.40;99.90;;;;;;5050475;28;20500;-77
2023/05/03 06:03:13;;;;;;;12.93;10.27;;;9.40;99.90;;;;;;5049047;28;20208;-78
2023/05/03 06:05:39;;;;;;;15.87;10.50;;;9.40;99.90;;;;;;5048827;28;20411;-77
2023/05/03 06:08:05;;;;;;;14.50;10.90;;;9.20;99.90;;;;;;5032307;28;20462;-76
2023/05/03 06:10:30;;;;;;;15.00;11.00;;;9.40;99.90;;;;;;5032724;28;20207;-79
2023/05/03 06:12:56;;;;;;;12.40;9.57;;;9.70;99.90;;;;;;5032992;28;20260;-78
2023/05/03 06:15:22;;;;;;;12.23;9.13;;;9.70;99.90;;;;;;5049945;28;20202;-77
2023/05/03 06:17:47;;;;;;;12.17;9.43;;;9.90;99.90;;;;;;5051827;28;20206;-77
2023/05/03 06:20:13;;;;;;;11.90;9.03;;;9.90;99.90;;;;;;5051256;28;20543;-78
2023/05/03 06:22:39;;;;;;;13.00;10.10;;;10.10;99.90;;;;;;5015480;28;20207;-78
2023/05/03 06:25:06;;;;;;;13.30;9.77;;;10.20;99.90;;;;;;5033382;28;20269;-79
2023/05/03 06:27:32;;;;;;;12.80;9.43;;;10.30;99.90;;;;;;5049522;28;20260;-77
2023/05/03 06:29:58;;;;;;;12.80;9.37;;;10.40;99.90;;;;;;5035372;28;20937;-78
2023/05/03 06:32:23;;;;;;;13.60;9.87;;;10.60;99.90;;;;;;5049611;28;20553;-78
2023/05/03 06:34:49;;;;;;;12.33;9.30;;;10.80;99.90;;;;;;5048130;28;20585;-78
2023/05/03 06:37:16;;;;;;;16.97;9.63;;;11.30;99.90;;;;;;5048641;28;20218;-78
2023/05/03 06:39:41;;;;;;;12.10;8.57;;;11.50;99.90;;;;;;5050308;28;20517;-78
2023/05/03 06:42:07;;;;;;;19.40;9.20;;;11.60;99.90;;;;;;5035697;28;20613;-78
2023/05/03 06:44:33;;;;;;;13.33;9.33;;;11.50;99.90;;;;;;5052800;28;20216;-78
2023/05/03 06:46:58;;;;;;;13.63;9.23;;;11.60;99.90;;;;;;5054090;28;20185;-78
2023/05/03 06:49:24;;;;;;;12.20;8.53;;;11.70;99.90;;;;;;5053545;28;20638;-77
2023/05/03 06:51:49;;;;;;;15.93;9.53;;;11.90;99.90;;;;;;5053581;28;20189;-78
2023/05/03 06:54:15;;;;;;;12.27;9.53;;;12.10;99.90;;;;;;5036154;28;20186;-78
2023/05/03 06:56:41;;;;;;;16.70;9.40;;;12.30;99.90;;;;;;5054017;28;20223;-77
2023/05/03 06:59:09;;;;;;;14.97;9.43;;;12.50;99.90;;;;;;5052516;28;20211;-77
2023/05/03 07:01:35;;;;;;;11.53;8.53;;;12.70;99.90;;;;;;5052265;28;20538;-78
2023/05/03 07:04:00;;;;;;;10.50;8.30;;;12.50;99.90;;;;;;5035419;28;20530;-77
2023/05/03 07:06:26;;;;;;;11.67;9.63;;;12.60;99.90;;;;;;5051905;28;20198;-78
2023/05/03 07:08:52;;;;;;;13.17;9.43;;;12.70;99.90;;;;;;5034989;28;20209;-78
2023/05/03 07:11:22;;;;;;;13.00;9.93;;;12.80;99.90;;;;;;5053321;28;20183;-78
2023/05/03 07:13:49;;;;;;;12.23;9.70;;;13.00;99.90;;;;;;5052993;28;20435;-78
2023/05/03 07:16:15;;;;;;;11.83;9.73;;;13.20;99.90;;;;;;5035255;28;20461;-77
2023/05/03 07:18:40;;;;;;;12.90;10.43;;;13.10;99.90;;;;;;5053011;28;20471;-77
2023/05/03 07:21:06;;;;;;;12.07;9.73;;;13.20;99.90;;;;;;5053740;28;20197;-78
2023/05/03 07:23:32;;;;;;;12.37;9.90;;;13.30;99.90;;;;;;5052006;28;20207;-78
2023/05/03 07:25:58;;;;;;;14.97;9.30;;;13.30;99.90;;;;;;5052000;28;20199;-77
2023/05/03 07:28:23;;;;;;;12.07;9.97;;;13.40;99.90;;;;;;5052303;28;20703;-77
2023/05/03 07:30:50;;;;;;;10.83;9.60;;;13.50;99.90;;;;;;5051791;28;20453;-78
2023/05/03 07:33:16;;;;;;;14.60;10.20;;;13.40;99.90;;;;;;5051744;28;20627;-77
2023/05/03 07:35:41;;;;;;;12.30;9.93;;;13.40;99.90;;;;;;5018667;28;20461;-77
2023/05/03 07:38:07;;;;;;;11.47;9.37;;;13.50;99.90;;;;;;5053132;28;20215;-76
2023/05/03 07:40:32;;;;;;;11.63;9.07;;;13.30;99.90;;;;;;5051474;28;20663;-77
2023/05/03 07:42:59;;;;;;;12.83;11.03;;;13.40;99.90;;;;;;5052508;28;20191;-78
2023/05/03 07:45:25;;;;;;;13.30;9.60;;;13.50;99.90;;;;;;5034213;28;20184;-78
2023/05/03 07:47:51;;;;;;;13.97;10.63;;;13.60;99.90;;;;;;5050769;28;20446;-77
2023/05/03 07:50:17;;;;;;;16.47;11.10;;;13.60;99.90;;;;;;5050805;28;20926;-76
2023/05/03 07:52:43;;;;;;;18.90;11.60;;;13.70;99.90;;;;;;5049901;28;20421;-77
2023/05/03 07:55:09;;;;;;;14.00;10.90;;;13.80;99.90;;;;;;5050327;28;20248;-77
2023/05/03 07:57:35;;;;;;;14.20;10.10;;;14.00;99.90;;;;;;5053372;28;20251;-79
2023/05/03 08:00:01;;;;;;;16.17;10.50;;;14.20;99.90;;;;;;5055508;28;20612;-79
2023/05/03 08:02:27;;;;;;;17.43;11.33;;;14.30;99.90;;;;;;5053387;28;20414;-79
2023/05/03 08:04:53;;;;;;;15.13;10.63;;;14.40;99.90;;;;;;5051847;28;20518;-77
2023/05/03 08:07:19;;;;;;;13.47;10.33;;;14.40;99.90;;;;;;5053718;28;20210;-78
2023/05/03 08:09:47;;;;;;;15.57;11.20;;;14.40;99.90;;;;;;5053695;28;20425;-77
2023/05/03 08:12:13;;;;;;;13.70;10.47;;;14.50;99.90;;;;;;5053590;28;20418;-77
2023/05/03 08:14:39;;;;;;;17.10;10.77;;;14.60;99.90;;;;;;5051628;28;20426;-78
2023/05/03 08:17:05;;;;;;;13.83;11.10;;;14.80;99.90;;;;;;5051436;28;20180;-79
2023/05/03 08:19:31;;;;;;;13.87;10.27;;;14.80;99.90;;;;;;5053217;28;20794;-79
2023/05/03 08:21:57;;;;;;;15.53;12.10;;;14.90;99.90;;;;;;5051272;28;20190;-79
2023/05/03 08:24:23;;;;;;;13.00;11.40;;;14.90;99.90;;;;;;5034730;28;20323;-76
2023/05/03 08:26:49;;;;;;;14.97;11.03;;;15.10;99.90;;;;;;5049677;28;20999;-78
2023/05/03 08:29:15;;;;;;;13.30;10.90;;;15.30;99.90;;;;;;5051135;28;20195;-78
2023/05/03 08:31:41;;;;;;;14.17;11.37;;;15.30;99.90;;;;;;5049717;28;20480;-78
2023/05/03 08:34:09;;;;;;;13.77;11.50;;;15.50;99.90;;;;;;5051018;28;20541;-78
2023/05/03 08:36:36;;;;;;;14.40;11.77;;;15.50;99.90;;;;;;5049507;28;20173;-77
2023/05/03 08:39:06;;;;;;;12.20;9.47;;;15.60;99.90;;;;;;5050519;28;20440;-78
2023/05/03 08:41:32;;;;;;;11.20;9.97;;;15.80;99.90;;;;;;5049634;28;20428;-78
2023/05/03 08:43:59;;;;;;;18.73;10.50;;;16.00;99.90;;;;;;5051987;28;20461;-78
2023/05/03 08:46:27;;;;;;;16.00;10.17;;;16.10;99.90;;;;;;5050268;28;20433;-78
2023/05/03 08:48:53;;;;;;;13.60;9.40;;;16.20;99.90;;;;;;5050452;28;20432;-78
2023/05/03 08:51:21;;;;;;;12.90;10.90;;;16.40;99.90;;;;;;5034742;28;20879;-79
2023/05/03 08:53:47;;;;;;;15.37;11.03;;;16.50;99.90;;;;;;5050739;28;20461;-77
2023/05/03 08:56:30;;;;;;;18.50;11.03;;;16.60;99.90;;;;;;5051710;28;20480;-78
2023/05/03 08:59:00;;;;;;;15.30;11.63;;;16.90;99.90;;;;;;5050262;28;20442;-78
2023/05/03 09:01:25;;;;;;;15.40;9.90;;;17.10;99.90;;;;;;5050254;28;20971;-78
2023/05/03 09:03:51;;;;;;;17.70;12.83;;;17.40;99.90;;;;;;5050143;28;20545;-77
2023/05/03 09:06:26;;;;;;;16.67;11.40;;;17.70;99.90;;;;;;5034478;28;20281;-78
2023/05/03 09:08:53;;;;;;;14.80;11.10;;;17.90;99.90;;;;;;5051615;28;20221;-78
2023/05/03 09:11:24;;;;;;;15.27;11.40;;;17.80;99.90;;;;;;5050377;28;20864;-78
2023/05/03 09:13:51;;;;;;;12.10;10.13;;;18.20;99.90;;;;;;5051990;28;20428;-78
2023/05/03 09:16:22;;;;;;;16.80;11.03;;;18.60;99.90;;;;;;5051250;28;20427;-77
2023/05/03 09:19:03;;;;;;;15.10;11.87;;;18.80;99.90;;;;;;5052232;28;20531;-78
2023/05/03 09:21:32;;;;;;;17.07;10.50;;;18.90;99.70;;;;;;5051790;28;20834;-77
2023/05/03 09:23:58;;;;;;;15.53;10.53;;;18.90;99.90;;;;;;5051878;28;20897;-79
2023/05/03 09:26:31;;;;;;;19.47;11.63;;;19.20;99.90;;;;;;5051669;28;20432;-78
2023/05/03 09:28:59;;;;;;;12.77;10.77;;;19.40;99.30;;;;;;5033472;28;20446;-78
2023/05/03 09:31:26;;;;;;;12.40;10.10;;;19.60;97.40;;;;;;5051108;28;20794;-78
2023/05/03 09:33:52;;;;;;;12.63;9.77;;;19.20;97.20;;;;;;5050764;28;20427;-79
2023/05/03 09:36:18;;;;;;;10.33;9.20;;;19.10;98.40;;;;;;5049720;28;20937;-79
2023/05/03 09:38:43;;;;;;;18.70;10.37;;;19.30;99.10;;;;;;5032612;28;20451;-79
2023/05/03 09:41:09;;;;;;;11.73;9.60;;;19.60;97.70;;;;;;5050675;28;20198;-78
2023/05/03 09:43:46;;;;;;;17.03;9.63;;;19.50;95.50;;;;;;5050241;28;20213;-78
2023/05/03 09:46:13;;;;;;;9.53;8.53;;;19.00;96.20;;;;;;5049855;28;20518;-78
2023/05/03 09:48:39;;;;;;;12.27;9.57;;;18.80;96.50;;;;;;5031314;28;20971;-78
2023/05/03 09:51:05;;;;;;;17.40;8.47;;;18.40;97.20;;;;;;5049443;28;20189;-78
2023/05/03 09:53:32;;;;;;;15.23;10.00;;;18.00;97.90;;;;;;5049219;28;20451;-77
2023/05/03 09:56:01;;;;;;;10.53;9.37;;;18.00;99.30;;;;;;5048305;28;20786;-78
2023/05/03 09:58:29;;;;;;;11.60;8.93;;;18.90;99.80;;;;;;5049900;28;21181;-78
2023/05/03 10:00:56;;;;;;;13.30;9.93;;;19.60;96.80;;;;;;5049720;28;20431;-77
2023/05/03 10:03:33;;;;;;;10.13;8.97;;;20.10;94.60;;;;;;5047761;28;20484;-78
2023/05/03 10:06:02;;;;;;;10.23;7.93;;;20.40;93.70;;;;;;5049118;28;21308;-78
2023/05/03 10:08:39;;;;;;;14.73;9.07;;;21.10;92.40;;;;;;5031597;28;20449;-78
2023/05/03 10:11:07;;;;;;;11.53;7.50;;;21.20;92.90;;;;;;5048846;28;20465;-78
2023/05/03 10:13:34;;;;;;;11.00;8.60;;;21.70;90.30;;;;;;5047391;28;20430;-78
2023/05/03 10:16:08;;;;;;;12.40;9.47;;;22.10;87.80;;;;;;5049239;28;20440;-78
2023/05/03 10:18:39;;;;;;;11.47;9.10;;;22.10;90.20;;;;;;5051899;28;20480;-79
2023/05/03 10:21:13;;;;;;;11.83;9.17;;;22.30;85.10;;;;;;5052194;28;20859;-79
2023/05/03 10:24:14;;;;;;;10.40;8.40;;;22.50;86.60;;;;;;5051620;28;20463;-78
2023/05/03 10:26:44;;;;;;;9.37;7.50;;;22.70;85.70;;;;;;5053070;28;20495;-78
2023/05/03 10:29:32;;;;;;;13.83;9.27;;;22.70;85.70;;;;;;5053230;28;20810;-78
2023/05/03 10:31:58;;;;;;;10.70;9.10;;;22.80;86.70;;;;;;5052763;28;20421;-77
2023/05/03 10:34:29;;;;;;;10.73;9.60;;;23.20;85.80;;;;;;5052683;28;20425;-78
2023/05/03 10:36:55;;;;;;;14.63;9.90;;;22.60;83.40;;;;;;5052582;28;20236;-78
2023/05/03 10:39:21;;;;;;;10.37;8.87;;;21.90;84.30;;;;;;5052557;28;20440;-77
2023/05/03 10:41:57;;;;;;;10.07;8.90;;;21.10;85.80;;;;;;5051041;28;20526;-79
2023/05/03 10:44:33;;;;;;;11.40;9.67;;;20.40;87.00;;;;;;5052280;28;20466;-79
2023/05/03 10:47:15;;;;;;;12.83;9.00;;;20.20;89.80;;;;;;5053617;28;20421;-79
2023/05/03 10:49:42;;;;;;;11.37;9.50;;;20.80;90.50;;;;;;5053437;28;20405;-79
2023/05/03 10:52:38;;;;;;;13.30;8.37;;;21.40;86.50;;;;;;5051518;28;20426;-77
2023/05/03 10:55:20;;;;;;;12.40;9.40;;;21.30;88.00;;;;;;5053130;28;20425;-77
2023/05/03 10:57:47;;;;;;;10.10;8.97;;;21.10;88.50;;;;;;5052985;28;20441;-77
2023/05/03 11:00:27;;;;;;;14.70;9.03;;;21.60;87.70;;;;;;5051504;28;20425;-77
2023/05/03 11:03:14;;;;;;;12.40;9.70;;;21.00;87.80;;;;;;5052835;28;20408;-77
2023/05/03 11:05:41;;;;;;;9.67;8.67;;;20.70;88.80;;;;;;5052180;28;20433;-75
2023/05/03 11:08:11;;;;;;;8.93;8.03;;;20.50;90.40;;;;;;5052438;28;20495;-78
2023/05/03 11:10:37;;;;;;;10.87;8.23;;;21.00;90.20;;;;;;5052309;28;20927;-79
2023/05/03 11:13:03;;;;;;;12.93;8.13;;;20.90;89.90;;;;;;5052624;28;20422;-78
2023/05/03 11:15:30;;;;;;;10.13;7.90;;;20.20;89.60;;;;;;5052487;28;20426;-77
2023/05/03 11:17:55;;;;;;;9.37;8.40;;;19.90;90.90;;;;;;5052276;28;20202;-78
2023/05/03 11:20:21;;;;;;;8.67;7.77;;;19.90;91.50;;;;;;5052220;28;20791;-78
2023/05/03 11:22:47;;;;;;;9.47;7.40;;;19.70;90.70;;;;;;5052188;28;20195;-78
2023/05/03 11:25:14;;;;;;;9.50;7.77;;;20.60;91.20;;;;;;5033865;28;20508;-77
2023/05/03 11:27:45;;;;;;;10.07;7.40;;;20.90;87.20;;;;;;5049460;28;20247;-77
2023/05/03 11:30:12;;;;;;;14.50;9.60;;;20.80;87.80;;;;;;5051568;28;20949;-78
2023/05/03 11:32:38;;;;;;;17.80;8.13;;;20.50;88.20;;;;;;5052945;28;20430;-76
2023/05/03 11:35:06;;;;;;;10.37;7.37;;;21.00;88.80;;;;;;5052476;28;20796;-78
2023/05/03 11:37:32;;;;;;;8.47;7.67;;;21.70;87.80;;;;;;5051312;28;20570;-78
2023/05/03 11:39:58;;;;;;;8.80;7.37;;;21.80;82.40;;;;;;5051252;28;20800;-77
2023/05/03 11:42:25;;;;;;;9.10;6.83;;;21.30;82.00;;;;;;5052718;28;20426;-78
2023/05/03 11:44:55;;;;;;;10.30;6.40;;;20.90;84.90;;;;;;5051020;28;20478;-76
2023/05/03 11:47:21;;;;;;;6.67;5.93;;;21.40;83.60;;;;;;5052577;28;20438;-79
2023/05/03 11:49:54;;;;;;;7.40;6.63;;;21.30;83.40;;;;;;5052360;28;20415;-77
2023/05/03 11:52:25;;;;;;;8.87;6.57;;;20.70;81.50;;;;;;5052550;28;20460;-78
2023/05/03 11:54:51;;;;;;;7.67;6.70;;;20.60;83.50;;;;;;5051045;28;20445;-77
2023/05/03 11:57:17;;;;;;;6.83;5.83;;;20.40;79.90;;;;;;5052277;28;20429;-77
2023/05/03 11:59:43;;;;;;;6.33;5.70;;;20.10;79.30;;;;;;5051786;28;20428;-77
2023/05/03 12:02:12;;;;;;;8.10;6.70;;;19.80;79.90;;;;;;5051929;28;20791;-78
2023/05/03 12:04:42;;;;;;;6.60;5.50;;;20.40;82.40;;;;;;5050664;28;20563;-78
2023/05/03 12:07:12;;;;;;;6.13;5.53;;;21.10;83.20;;;;;;5034671;28;20446;-77
2023/05/03 12:09:38;;;;;;;8.07;6.40;;;21.60;84.40;;;;;;5049926;28;20964;-76
2023/05/03 12:12:04;;;;;;;7.80;6.30;;;22.30;79.90;;;;;;5049968;28;20426;-77
2023/05/03 12:14:59;;;;;;;6.40;5.80;;;22.10;75.90;;;;;;5049924;28;20793;-77
2023/05/03 12:17:38;;;;;;;6.43;5.80;;;21.60;78.20;;;;;;5051459;28;20437;-76
2023/05/03 12:20:18;;;;;;;5.90;5.30;;;21.00;78.40;;;;;;5049710;28;20416;-76
2023/05/03 12:22:49;;;;;;;10.73;6.43;;;21.00;80.00;;;;;;5050815;28;20413;-79
2023/05/03 12:25:14;;;;;;;6.60;5.37;;;21.30;80.20;;;;;;5049403;28;20500;-78
2023/05/03 12:27:40;;;;;;;7.37;5.20;;;21.70;77.40;;;;;;5033009;28;20465;-77
2023/05/03 12:30:09;;;;;;;8.33;5.87;;;22.10;76.00;;;;;;5049473;28;20190;-77
2023/05/03 12:32:34;;;;;;;5.90;4.90;;;22.40;74.60;;;;;;5051263;28;20185;-78
2023/05/03 12:35:00;;;;;;;8.40;6.43;;;22.10;75.10;;;;;;5050555;28;20418;-77
2023/05/03 12:37:26;;;;;;;7.20;5.20;;;21.80;72.90;;;;;;5049252;28;21000;-77
2023/05/03 12:39:51;;;;;;;6.63;4.53;;;22.00;73.60;;;;;;5048857;28;20187;-78
2023/05/03 12:42:17;;;;;;;5.43;4.93;;;21.80;72.80;;;;;;5049072;28;20247;-76
2023/05/03 12:44:43;;;;;;;8.80;5.67;;;21.30;70.70;;;;;;5050455;28;20214;-77